Time;durP1;ratioP1;P1;durP2;ratioP2;P2;SDS_P1;SDS_P2;PMS_P1;PMS_P2;Temp;Humidity;BMP_temperature;BMP_pressure;BME280_temperature;BME280_humidity;BME280_pressure;Samples;Min_cycle;Max_cycle;Signal;HPM_P1;HPM_P2
2022/01/08 00:01:01;;;;;;;14.23;9.70;;;;;;;;;;5012105;28;20250;-60
2022/01/08 00:03:26;;;;;;;17.37;9.67;;;;;;;;;;5012445;28;20578;-59
2022/01/08 00:05:53;;;;;;;13.90;9.80;;;;;;;;;;5011302;28;20323;-59
2022/01/08 00:08:18;;;;;;;17.00;10.83;;;;;;;;;;4995025;28;20540;-59
2022/01/08 00:10:44;;;;;;;15.73;10.90;;;;;;;;;;5012649;28;20730;-59
2022/01/08 00:13:09;;;;;;;17.47;11.17;;;;;;;;;;5011441;28;20295;-59
2022/01/08 00:15:34;;;;;;;16.57;9.97;;;;;;;;;;4994673;28;20212;-59
2022/01/08 00:18:00;;;;;;;15.33;10.23;;;;;;;;;;5012466;28;20216;-59
2022/01/08 00:20:26;;;;;;;16.87;11.00;;;;;;;;;;4993368;28;20243;-60
2022/01/08 00:22:53;;;;;;;14.70;10.73;;;;;;;;;;5012490;28;20255;-60
2022/01/08 00:25:19;;;;;;;15.87;10.83;;;;;;;;;;5011768;28;20819;-59
2022/01/08 00:27:44;;;;;;;15.90;10.70;;;;;;;;;;5011548;28;20285;-59
2022/01/08 00:30:10;;;;;;;14.90;10.53;;;;;;;;;;5011909;28;20687;-59
2022/01/08 00:32:35;;;;;;;14.07;9.70;;;;;;;;;;5007614;28;20219;-59
2022/01/08 00:35:00;;;;;;;18.37;11.77;;;;;;;;;;5014418;28;20207;-59
2022/01/08 00:37:25;;;;;;;18.50;11.43;;;;;;;;;;5031624;28;20208;-59
2022/01/08 00:39:51;;;;;;;16.80;11.00;;;;;;;;;;5031213;28;20215;-59
2022/01/08 00:42:16;;;;;;;15.57;10.70;;;;;;;;;;5031532;28;20793;-59
2022/01/08 00:44:41;;;;;;;16.07;10.57;;;;;;;;;;5046090;28;20223;-59
2022/01/08 00:47:07;;;;;;;13.70;10.73;;;;;;;;;;5032704;28;20207;-59
2022/01/08 00:49:32;;;;;;;15.13;10.40;;;;;;;;;;5051793;28;20222;-59
2022/01/08 00:51:57;;;;;;;18.53;11.97;;;;;;;;;;5051391;28;20609;-59
2022/01/08 00:54:23;;;;;;;18.53;11.37;;;;;;;;;;5050498;28;20226;-59
2022/01/08 00:56:48;;;;;;;17.97;11.13;;;;;;;;;;5051738;28;20632;-59
2022/01/08 00:59:14;;;;;;;17.83;11.53;;;;;;;;;;5051066;28;20238;-59
2022/01/08 01:01:39;;;;;;;17.53;10.87;;;;;;;;;;5050786;28;20251;-59
2022/01/08 01:04:04;;;;;;;18.00;11.67;;;;;;;;;;5051229;28;20283;-59
2022/01/08 01:06:30;;;;;;;17.73;11.13;;;;;;;;;;5051122;28;20306;-59
2022/01/08 01:08:55;;;;;;;16.70;10.43;;;;;;;;;;5052586;28;20257;-59
2022/01/08 01:11:20;;;;;;;18.30;11.37;;;;;;;;;;5054612;28;20215;-59
2022/01/08 01:13:45;;;;;;;15.27;12.00;;;;;;;;;;5055150;28;20203;-59
2022/01/08 01:16:11;;;;;;;17.13;10.87;;;;;;;;;;5029941;28;20215;-59
2022/01/08 01:18:37;;;;;;;16.03;11.60;;;;;;;;;;5017610;28;20211;-59
2022/01/08 01:21:02;;;;;;;17.03;11.03;;;;;;;;;;5034523;28;20208;-59
2022/01/08 01:23:34;;;;;;;17.40;11.07;;;;;;;;;;5051426;28;20681;-59
2022/01/08 01:26:03;;;;;;;16.37;10.40;;;;;;;;;;5054681;28;20698;-59
2022/01/08 01:47:10;;;;;;;18.47;11.70;;;;;;;;;;5052840;28;20697;-59
2022/01/08 01:49:36;;;;;;;18.63;12.13;;;;;;;;;;5054662;28;20290;-59
2022/01/08 01:52:02;;;;;;;16.67;11.23;;;;;;;;;;5053084;28;20207;-59
2022/01/08 01:54:27;;;;;;;16.67;11.53;;;;;;;;;;5054223;28;20272;-59
2022/01/08 01:56:53;;;;;;;19.73;12.73;;;;;;;;;;5036039;28;20212;-59
2022/01/08 01:59:18;;;;;;;18.67;12.67;;;;;;;;;;5052394;28;20267;-59
2022/01/08 02:01:43;;;;;;;18.63;11.53;;;;;;;;;;5040346;28;20212;-58
2022/01/08 02:04:08;;;;;;;21.00;12.80;;;;;;;;;;5033056;28;20242;-59
2022/01/08 02:06:34;;;;;;;17.07;10.93;;;;;;;;;;5034346;28;20228;-59
2022/01/08 02:08:59;;;;;;;17.97;11.53;;;;;;;;;;5032678;28;20586;-59
2022/01/08 02:11:24;;;;;;;16.00;11.50;;;;;;;;;;5033065;28;20553;-58
2022/01/08 02:13:50;;;;;;;20.40;11.33;;;;;;;;;;5034141;28;20617;-58
2022/01/08 02:16:17;;;;;;;19.07;12.27;;;;;;;;;;5031556;28;20208;-59
2022/01/08 02:18:44;;;;;;;19.03;12.00;;;;;;;;;;5013526;28;20232;-58
2022/01/08 02:21:09;;;;;;;18.17;12.50;;;;;;;;;;5013547;28;20307;-58
2022/01/08 02:23:35;;;;;;;15.23;10.30;;;;;;;;;;5013796;28;20287;-59
2022/01/08 02:26:02;;;;;;;17.37;11.63;;;;;;;;;;5013176;28;20220;-58
2022/01/08 02:28:27;;;;;;;16.83;11.27;;;;;;;;;;5033682;28;20253;-58
2022/01/08 02:30:52;;;;;;;19.97;12.47;;;;;;;;;;5034210;28;20215;-58
2022/01/08 02:33:18;;;;;;;18.23;12.77;;;;;;;;;;5032393;28;20702;-59
2022/01/08 02:35:44;;;;;;;18.87;13.13;;;;;;;;;;5032584;28;20262;-59
2022/01/08 02:38:09;;;;;;;22.63;13.43;;;;;;;;;;5032874;28;20224;-58
2022/01/08 02:40:36;;;;;;;21.07;14.80;;;;;;;;;;5032735;28;20199;-58
2022/01/08 02:43:04;;;;;;;18.33;12.87;;;;;;;;;;5032919;28;20736;-58
2022/01/08 02:45:29;;;;;;;17.20;11.47;;;;;;;;;;5033477;28;20306;-58
2022/01/08 02:47:55;;;;;;;17.47;12.57;;;;;;;;;;5032467;28;20323;-58
2022/01/08 02:50:20;;;;;;;17.47;11.80;;;;;;;;;;5032889;28;20216;-58
2022/01/08 02:52:46;;;;;;;20.17;13.27;;;;;;;;;;5033146;28;20208;-58
2022/01/08 02:55:13;;;;;;;20.83;13.07;;;;;;;;;;5032064;28;20223;-58
2022/01/08 02:57:38;;;;;;;17.47;12.63;;;;;;;;;;5033310;28;20212;-58
2022/01/08 03:00:03;;;;;;;18.43;12.33;;;;;;;;;;5033000;28;20569;-59
2022/01/08 03:02:29;;;;;;;19.40;11.97;;;;;;;;;;5032344;28;20208;-58
2022/01/08 03:04:54;;;;;;;16.40;12.03;;;;;;;;;;5032934;28;20224;-58
2022/01/08 03:07:19;;;;;;;19.63;14.13;;;;;;;;;;5032026;28;20283;-58
2022/01/08 03:09:51;;;;;;;20.70;13.37;;;;;;;;;;5015173;28;20235;-58
2022/01/08 03:12:16;;;;;;;18.90;12.43;;;;;;;;;;5032629;28;20246;-58
2022/01/08 03:14:41;;;;;;;17.53;11.73;;;;;;;;;;5032144;28;20606;-58
2022/01/08 03:17:06;;;;;;;17.37;11.37;;;;;;;;;;5019160;28;20231;-58
2022/01/08 03:19:34;;;;;;;19.10;12.73;;;;;;;;;;5013257;28;20614;-58
2022/01/08 03:22:03;;;;;;;20.73;12.80;;;;;;;;;;5017472;28;20290;-58
2022/01/08 03:24:29;;;;;;;22.70;12.93;;;;;;;;;;5032046;28;20239;-58
2022/01/08 03:26:54;;;;;;;18.93;12.13;;;;;;;;;;5032795;28;20266;-58
2022/01/08 03:29:20;;;;;;;19.10;12.57;;;;;;;;;;5013810;28;20216;-58
2022/01/08 03:31:45;;;;;;;18.47;11.67;;;;;;;;;;5032424;28;20289;-58
2022/01/08 03:34:10;;;;;;;14.53;11.77;;;;;;;;;;5031972;28;20599;-58
2022/01/08 03:36:35;;;;;;;20.17;13.00;;;;;;;;;;5031793;28;20335;-58
2022/01/08 03:39:01;;;;;;;23.27;13.00;;;;;;;;;;5032125;28;20219;-58
2022/01/08 03:41:26;;;;;;;20.87;11.87;;;;;;;;;;5032396;28;20214;-58
2022/01/08 03:43:51;;;;;;;18.53;11.40;;;;;;;;;;5031348;28;20224;-58
2022/01/08 03:46:19;;;;;;;22.13;12.43;;;;;;;;;;5031953;28;20223;-58
2022/01/08 03:48:57;;;;;;;15.43;10.97;;;;;;;;;;5015275;28;20237;-58
2022/01/08 03:51:23;;;;;;;16.77;11.40;;;;;;;;;;5031022;28;20218;-58
2022/01/08 03:53:48;;;;;;;17.20;12.73;;;;;;;;;;5032445;28;20208;-58
2022/01/08 03:56:13;;;;;;;16.43;11.30;;;;;;;;;;5031766;28;20246;-58
2022/01/08 03:58:38;;;;;;;18.63;12.07;;;;;;;;;;5031585;28;20207;-58
2022/01/08 04:01:04;;;;;;;18.87;11.83;;;;;;;;;;5023561;28;20220;-59
2022/01/08 04:03:29;;;;;;;18.13;11.57;;;;;;;;;;5012064;28;20213;-58
2022/01/08 04:05:54;;;;;;;20.50;12.50;;;;;;;;;;5012205;28;20235;-58
2022/01/08 04:08:20;;;;;;;22.07;12.60;;;;;;;;;;5012302;28;20584;-58
2022/01/08 04:10:45;;;;;;;18.13;11.47;;;;;;;;;;5011690;28;20235;-58
2022/01/08 04:13:14;;;;;;;22.23;13.23;;;;;;;;;;5012226;28;20232;-58
2022/01/08 04:15:42;;;;;;;19.40;11.97;;;;;;;;;;5012236;28;20633;-58
2022/01/08 04:18:08;;;;;;;17.53;10.70;;;;;;;;;;4993486;28;20216;-58
2022/01/08 04:20:38;;;;;;;15.70;10.43;;;;;;;;;;5012259;28;20215;-58
2022/01/08 04:23:03;;;;;;;15.77;11.17;;;;;;;;;;4995174;28;20200;-59
2022/01/08 04:25:30;;;;;;;19.50;11.67;;;;;;;;;;5011438;28;20224;-58
2022/01/08 04:27:56;;;;;;;16.80;11.10;;;;;;;;;;5012422;28;20215;-58
2022/01/08 04:30:21;;;;;;;20.87;11.77;;;;;;;;;;4994412;28;20244;-58
2022/01/08 04:32:46;;;;;;;17.87;11.67;;;;;;;;;;5011639;28;20316;-58
2022/01/08 04:35:12;;;;;;;18.13;11.20;;;;;;;;;;5011597;28;20240;-59
2022/01/08 04:37:37;;;;;;;19.77;12.23;;;;;;;;;;5012432;28;20672;-58
2022/01/08 04:40:02;;;;;;;18.80;11.77;;;;;;;;;;5011115;28;20609;-59
2022/01/08 04:42:28;;;;;;;16.77;11.63;;;;;;;;;;5012110;28;20213;-58
2022/01/08 04:44:54;;;;;;;21.20;11.50;;;;;;;;;;5030930;28;20708;-58
2022/01/08 04:47:19;;;;;;;15.90;10.43;;;;;;;;;;5034368;28;20212;-58
2022/01/08 04:49:45;;;;;;;19.53;10.63;;;;;;;;;;5035527;28;20556;-59
2022/01/08 04:52:10;;;;;;;17.97;10.90;;;;;;;;;;5035118;28;20238;-59
2022/01/08 04:54:35;;;;;;;20.00;11.53;;;;;;;;;;5017123;28;20299;-58
2022/01/08 04:57:00;;;;;;;16.23;10.93;;;;;;;;;;5035035;28;20231;-60
2022/01/08 04:59:26;;;;;;;19.57;10.73;;;;;;;;;;5035519;28;20216;-58
2022/01/08 05:01:51;;;;;;;18.37;11.20;;;;;;;;;;5034579;28;20226;-58
2022/01/08 05:04:16;;;;;;;16.73;9.90;;;;;;;;;;5034965;28;20208;-58
2022/01/08 05:06:42;;;;;;;16.87;10.70;;;;;;;;;;5035309;28;20295;-58
2022/01/08 05:09:07;;;;;;;15.27;9.13;;;;;;;;;;5034135;28;20204;-58
2022/01/08 05:11:32;;;;;;;20.30;10.77;;;;;;;;;;5035264;28;20215;-59
2022/01/08 05:13:58;;;;;;;16.30;10.10;;;;;;;;;;5016773;28;20234;-58
2022/01/08 05:16:23;;;;;;;15.97;9.77;;;;;;;;;;5027068;28;20616;-58
2022/01/08 05:18:51;;;;;;;17.97;10.47;;;;;;;;;;5015282;28;20223;-58
2022/01/08 05:21:26;;;;;;;18.43;10.73;;;;;;;;;;5014049;28;20213;-58
2022/01/08 05:23:52;;;;;;;14.80;9.93;;;;;;;;;;5015459;28;20222;-58
2022/01/08 05:26:17;;;;;;;17.83;10.33;;;;;;;;;;5014682;28;20311;-58
2022/01/08 05:28:44;;;;;;;14.57;8.70;;;;;;;;;;5014164;28;20216;-58
2022/01/08 05:31:09;;;;;;;18.53;9.67;;;;;;;;;;5014631;28;20372;-58
2022/01/08 05:33:35;;;;;;;20.13;9.47;;;;;;;;;;4997440;28;20695;-58
2022/01/08 05:36:00;;;;;;;16.23;10.33;;;;;;;;;;5014246;28;20204;-58
2022/01/08 05:38:25;;;;;;;20.77;10.30;;;;;;;;;;5014719;28;20223;-58
2022/01/08 05:40:50;;;;;;;17.77;9.70;;;;;;;;;;5014871;28;20575;-58
2022/01/08 05:43:16;;;;;;;17.37;10.07;;;;;;;;;;5013154;28;20687;-58
2022/01/08 05:45:41;;;;;;;16.90;9.80;;;;;;;;;;5014895;28;20295;-58
2022/01/08 05:48:07;;;;;;;19.03;10.53;;;;;;;;;;5014230;28;20220;-59
2022/01/08 05:50:32;;;;;;;17.07;9.73;;;;;;;;;;5014229;28;20573;-58
2022/01/08 05:52:57;;;;;;;16.10;9.80;;;;;;;;;;5014567;28;20719;-58
2022/01/08 05:55:23;;;;;;;16.37;8.40;;;;;;;;;;5013772;28;20220;-58
2022/01/08 05:57:48;;;;;;;14.27;9.00;;;;;;;;;;5013698;28;20295;-58
2022/01/08 06:00:13;;;;;;;13.70;8.77;;;;;;;;;;5015657;28;20224;-58
2022/01/08 06:02:38;;;;;;;19.87;9.37;;;;;;;;;;5034316;28;20200;-58
2022/01/08 06:05:04;;;;;;;12.83;7.53;;;;;;;;;;5032869;28;20259;-58
2022/01/08 06:07:30;;;;;;;15.97;9.13;;;;;;;;;;5034221;28;20739;-58
2022/01/08 06:09:55;;;;;;;15.50;9.23;;;;;;;;;;5034328;28;20226;-58
2022/01/08 06:12:20;;;;;;;18.10;10.40;;;;;;;;;;5032990;28;20583;-58
2022/01/08 06:14:45;;;;;;;14.67;9.30;;;;;;;;;;5033792;28;20242;-58
2022/01/08 06:17:11;;;;;;;12.67;7.90;;;;;;;;;;5018601;28;20550;-58
2022/01/08 06:19:36;;;;;;;16.93;9.17;;;;;;;;;;5014108;28;20299;-58
2022/01/08 06:22:02;;;;;;;17.63;9.30;;;;;;;;;;5018759;28;20200;-59
2022/01/08 06:24:27;;;;;;;16.57;9.17;;;;;;;;;;5033143;28;20318;-58
2022/01/08 06:26:52;;;;;;;14.63;8.97;;;;;;;;;;5033817;28;20626;-58
2022/01/08 06:29:17;;;;;;;17.17;8.90;;;;;;;;;;5032961;28;20319;-58
2022/01/08 06:31:43;;;;;;;16.77;8.97;;;;;;;;;;5033097;28;20215;-58
2022/01/08 06:34:08;;;;;;;19.87;9.37;;;;;;;;;;5033400;28;20262;-58
2022/01/08 06:36:33;;;;;;;18.40;8.90;;;;;;;;;;5033918;28;20207;-58
2022/01/08 06:38:59;;;;;;;17.33;10.03;;;;;;;;;;5032613;28;20220;-58
2022/01/08 06:41:24;;;;;;;20.20;9.27;;;;;;;;;;5033112;28;20218;-58
2022/01/08 06:43:49;;;;;;;18.73;9.33;;;;;;;;;;5033121;28;20710;-58
2022/01/08 06:46:15;;;;;;;16.43;9.47;;;;;;;;;;5032076;28;20247;-58
2022/01/08 06:48:41;;;;;;;19.77;9.17;;;;;;;;;;5033418;28;20208;-58
2022/01/08 06:51:06;;;;;;;15.60;9.43;;;;;;;;;;5032821;28;20674;-58
2022/01/08 06:53:31;;;;;;;17.20;8.93;;;;;;;;;;5032364;28;20212;-58
2022/01/08 06:55:57;;;;;;;18.37;9.10;;;;;;;;;;5033348;28;20208;-58
2022/01/08 06:58:25;;;;;;;17.47;9.57;;;;;;;;;;5032768;28;20265;-58
2022/01/08 07:00:50;;;;;;;16.10;9.17;;;;;;;;;;5008561;28;20216;-58
2022/01/08 07:03:15;;;;;;;20.03;10.50;;;;;;;;;;5012920;28;20633;-58
2022/01/08 07:05:40;;;;;;;21.90;9.23;;;;;;;;;;4995095;28;20758;-58
2022/01/08 07:08:06;;;;;;;23.47;9.53;;;;;;;;;;5011871;28;20200;-59
2022/01/08 07:10:31;;;;;;;18.60;9.90;;;;;;;;;;5013471;28;20219;-58
2022/01/08 07:12:56;;;;;;;19.60;10.50;;;;;;;;;;5012415;28;20227;-58
2022/01/08 07:15:22;;;;;;;16.30;9.73;;;;;;;;;;4994246;28;20601;-58
2022/01/08 07:17:47;;;;;;;17.90;10.70;;;;;;;;;;5012740;28;20419;-58
2022/01/08 07:20:12;;;;;;;18.47;9.80;;;;;;;;;;5012772;28;20219;-58
2022/01/08 07:22:37;;;;;;;18.50;10.40;;;;;;;;;;5012353;28;20208;-59
2022/01/08 07:25:03;;;;;;;15.60;9.27;;;;;;;;;;5012514;28;20220;-59
2022/01/08 07:27:30;;;;;;;19.80;9.87;;;;;;;;;;5012340;28;20219;-59
2022/01/08 07:29:55;;;;;;;17.63;9.53;;;;;;;;;;5012728;28;20215;-59
2022/01/08 07:32:20;;;;;;;19.83;10.93;;;;;;;;;;5012782;28;20220;-59
2022/01/08 07:34:46;;;;;;;22.57;9.90;;;;;;;;;;5012091;28;20220;-59
2022/01/08 07:37:11;;;;;;;17.17;10.00;;;;;;;;;;5012320;28;20320;-59
2022/01/08 07:39:36;;;;;;;22.87;10.77;;;;;;;;;;5012600;28;20216;-59
2022/01/08 07:42:01;;;;;;;18.73;10.10;;;;;;;;;;4993788;28;20216;-60
2022/01/08 07:44:27;;;;;;;21.33;10.17;;;;;;;;;;5024377;28;20235;-59
2022/01/08 07:46:52;;;;;;;18.90;10.13;;;;;;;;;;5036523;28;20212;-59
2022/01/08 07:49:17;;;;;;;24.70;10.77;;;;;;;;;;5031089;28;20216;-60
2022/01/08 07:51:43;;;;;;;21.53;9.90;;;;;;;;;;5032242;28;20576;-59
2022/01/08 07:54:08;;;;;;;21.10;10.40;;;;;;;;;;5031967;28;20299;-59
2022/01/08 07:56:35;;;;;;;22.43;10.27;;;;;;;;;;5031477;28;20210;-59
2022/01/08 07:59:01;;;;;;;16.87;10.53;;;;;;;;;;5031605;28;20682;-60
2022/01/08 08:01:26;;;;;;;18.83;10.30;;;;;;;;;;5020788;28;20253;-60
2022/01/08 08:03:51;;;;;;;22.33;10.80;;;;;;;;;;5011567;28;20208;-59
2022/01/08 08:06:16;;;;;;;20.30;10.37;;;;;;;;;;5011698;28;20312;-60
2022/01/08 08:08:42;;;;;;;23.20;10.17;;;;;;;;;;5012349;28;20211;-59
2022/01/08 08:11:07;;;;;;;18.70;11.03;;;;;;;;;;5011026;28;20239;-59
2022/01/08 08:13:32;;;;;;;19.93;10.20;;;;;;;;;;5012493;28;20254;-59
2022/01/08 08:15:58;;;;;;;16.37;9.87;;;;;;;;;;5015902;28;20571;-59
2022/01/08 08:18:23;;;;;;;19.20;10.03;;;;;;;;;;5033445;28;20225;-59
2022/01/08 08:20:48;;;;;;;18.80;11.17;;;;;;;;;;5036243;28;20211;-59
2022/01/08 08:23:14;;;;;;;21.90;11.30;;;;;;;;;;5020468;28;20575;-59
2022/01/08 08:25:39;;;;;;;18.70;11.03;;;;;;;;;;5015285;28;20260;-59
2022/01/08 08:28:05;;;;;;;23.70;11.27;;;;;;;;;;4998232;28;20212;-59
2022/01/08 08:30:30;;;;;;;19.60;10.60;;;;;;;;;;4998740;28;20208;-59
2022/01/08 08:32:55;;;;;;;17.53;10.60;;;;;;;;;;5015382;28;20223;-59
2022/01/08 08:35:21;;;;;;;22.60;11.17;;;;;;;;;;5015597;28;20216;-59
2022/01/08 08:37:47;;;;;;;18.30;11.37;;;;;;;;;;5015676;28;20214;-60
2022/01/08 08:40:12;;;;;;;23.10;10.97;;;;;;;;;;5015322;28;20212;-59
2022/01/08 08:42:38;;;;;;;19.23;10.87;;;;;;;;;;4998241;28;20216;-59
2022/01/08 08:45:03;;;;;;;20.87;10.80;;;;;;;;;;5010527;28;20715;-59
2022/01/08 08:47:29;;;;;;;23.73;10.90;;;;;;;;;;5016438;28;20356;-69
2022/01/08 08:49:54;;;;;;;18.13;10.40;;;;;;;;;;5014235;28;20800;-60
2022/01/08 08:52:21;;;;;;;18.57;10.23;;;;;;;;;;5025220;28;20243;-59
2022/01/08 08:54:46;;;;;;;17.77;10.23;;;;;;;;;;5035067;28;20295;-59
2022/01/08 08:57:11;;;;;;;22.67;10.77;;;;;;;;;;5035107;28;20323;-59
2022/01/08 08:59:37;;;;;;;19.30;10.07;;;;;;;;;;5034815;28;20208;-59
2022/01/08 09:02:02;;;;;;;22.03;9.77;;;;;;;;;;5018218;28;20220;-59
2022/01/08 09:04:28;;;;;;;17.87;10.43;;;;;;;;;;5014276;28;20246;-59
2022/01/08 09:06:53;;;;;;;17.60;9.57;;;;;;;;;;5014587;28;20310;-59
2022/01/08 09:09:18;;;;;;;19.07;9.53;;;;;;;;;;5033903;28;20220;-61
2022/01/08 09:11:43;;;;;;;21.87;9.63;;;;;;;;;;5035272;28;20532;-60
2022/01/08 09:14:09;;;;;;;18.50;8.73;;;;;;;;;;5034007;28;20226;-60
2022/01/08 09:16:34;;;;;;;18.53;11.30;;;;;;;;;;5025202;28;20486;-60
2022/01/08 09:18:59;;;;;;;15.03;9.80;;;;;;;;;;5013955;28;20205;-59
2022/01/08 09:21:25;;;;;;;15.93;9.00;;;;;;;;;;5014158;28;20676;-60
2022/01/08 09:23:50;;;;;;;21.50;9.00;;;;;;;;;;5034959;28;20204;-59
2022/01/08 09:26:15;;;;;;;19.00;9.67;;;;;;;;;;5034327;28;20223;-59
2022/01/08 09:28:41;;;;;;;14.07;8.13;;;;;;;;;;5032152;28;20667;-59
2022/01/08 09:31:06;;;;;;;18.67;10.20;;;;;;;;;;5031364;28;20200;-60
2022/01/08 09:33:31;;;;;;;19.37;10.27;;;;;;;;;;5033756;28;20219;-60
2022/01/08 09:35:57;;;;;;;22.57;13.60;;;;;;;;;;5033996;28;20302;-60
2022/01/08 09:38:22;;;;;;;19.50;11.33;;;;;;;;;;5033110;28;20274;-60
2022/01/08 09:40:47;;;;;;;17.97;10.17;;;;;;;;;;5033488;28;20211;-60
2022/01/08 09:43:13;;;;;;;21.37;10.50;;;;;;;;;;5033135;28;20689;-60
2022/01/08 09:45:38;;;;;;;20.37;10.13;;;;;;;;;;5034509;28;20690;-60
2022/01/08 09:48:03;;;;;;;19.97;10.23;;;;;;;;;;5016092;28;20698;-60
2022/01/08 09:50:29;;;;;;;22.77;12.37;;;;;;;;;;5033633;28;20207;-60
2022/01/08 09:52:57;;;;;;;16.93;10.37;;;;;;;;;;5023606;28;20217;-64
2022/01/08 09:55:25;;;;;;;16.60;11.30;;;;;;;;;;5018082;28;20621;-63
2022/01/08 09:57:50;;;;;;;19.87;10.87;;;;;;;;;;5034447;28;20223;-61
2022/01/08 10:00:16;;;;;;;19.63;10.80;;;;;;;;;;5017871;28;20246;-61
2022/01/08 10:02:41;;;;;;;19.57;10.27;;;;;;;;;;5039454;28;20211;-60
2022/01/08 10:05:08;;;;;;;19.87;10.60;;;;;;;;;;5032229;28;20248;-61
2022/01/08 10:07:34;;;;;;;17.50;10.13;;;;;;;;;;5034105;28;20220;-61
2022/01/08 10:10:00;;;;;;;17.67;9.70;;;;;;;;;;5033442;28;20664;-61
2022/01/08 10:12:35;;;;;;;18.37;9.83;;;;;;;;;;5035150;28;20204;-61
2022/01/08 10:17:45;;;;;;;19.73;9.77;;;;;;;;;;5004571;28;20226;-61
2022/01/08 10:20:10;;;;;;;16.30;9.70;;;;;;;;;;5013412;28;20204;-60
2022/01/08 10:22:35;;;;;;;20.00;9.87;;;;;;;;;;5006093;28;20726;-61
2022/01/08 10:25:08;;;;;;;18.37;10.90;;;;;;;;;;5032345;28;20620;-61
2022/01/08 10:27:34;;;;;;;21.17;12.10;;;;;;;;;;5033239;28;20212;-61
2022/01/08 10:29:59;;;;;;;19.97;12.30;;;;;;;;;;5016035;28;20222;-61
2022/01/08 10:32:26;;;;;;;22.33;13.13;;;;;;;;;;5030866;28;21045;-61
2022/01/08 10:34:51;;;;;;;23.20;12.90;;;;;;;;;;5033209;28;20219;-60
2022/01/08 10:37:16;;;;;;;25.07;14.90;;;;;;;;;;5032983;28;20215;-60
2022/01/08 10:39:41;;;;;;;28.60;15.90;;;;;;;;;;5032712;28;20211;-61
2022/01/08 10:42:13;;;;;;;29.87;17.03;;;;;;;;;;5014535;28;20220;-60
2022/01/08 10:44:38;;;;;;;22.00;15.33;;;;;;;;;;5032455;28;20227;-61
2022/01/08 10:47:05;;;;;;;28.30;15.17;;;;;;;;;;5032971;28;20231;-60
2022/01/08 10:49:31;;;;;;;27.20;16.00;;;;;;;;;;5033104;28;20241;-60
2022/01/08 10:51:57;;;;;;;27.23;18.10;;;;;;;;;;5032092;28;20218;-60
2022/01/08 10:54:29;;;;;;;27.73;18.03;;;;;;;;;;5014969;28;20211;-60
2022/01/08 10:56:56;;;;;;;31.97;19.30;;;;;;;;;;4998736;28;20211;-60
2022/01/08 10:59:22;;;;;;;32.63;20.30;;;;;;;;;;5031561;28;20335;-60
2022/01/08 11:01:47;;;;;;;32.10;18.83;;;;;;;;;;5009861;28;20526;-61
2022/01/08 11:04:14;;;;;;;27.20;17.43;;;;;;;;;;5032434;28;20746;-60
2022/01/08 11:06:48;;;;;;;31.33;18.57;;;;;;;;;;5031748;28;20219;-60
2022/01/08 11:09:14;;;;;;;32.67;18.70;;;;;;;;;;5032578;28;20222;-60
2022/01/08 11:11:39;;;;;;;31.80;20.33;;;;;;;;;;5032503;28;20211;-60
2022/01/08 11:14:08;;;;;;;33.97;19.40;;;;;;;;;;5013843;28;20238;-61
2022/01/08 11:16:34;;;;;;;34.53;17.63;;;;;;;;;;4999079;28;20648;-60
2022/01/08 11:18:59;;;;;;;29.70;16.13;;;;;;;;;;5032391;28;20207;-60
2022/01/08 11:21:27;;;;;;;27.50;15.30;;;;;;;;;;5013515;28;20218;-60
2022/01/08 11:23:52;;;;;;;22.83;13.60;;;;;;;;;;5035256;28;20257;-60
2022/01/08 11:26:17;;;;;;;23.33;13.60;;;;;;;;;;5051712;28;20635;-60
2022/01/08 11:28:43;;;;;;;25.83;13.37;;;;;;;;;;5051694;28;20218;-60
2022/01/08 11:31:10;;;;;;;22.30;13.43;;;;;;;;;;5034544;28;20207;-60
2022/01/08 11:33:37;;;;;;;24.73;12.97;;;;;;;;;;5052284;28;20298;-60
2022/01/08 11:36:03;;;;;;;21.73;12.63;;;;;;;;;;5034078;28;20211;-59
2022/01/08 11:38:28;;;;;;;24.53;13.43;;;;;;;;;;5052444;28;20743;-60
2022/01/08 11:40:54;;;;;;;24.50;13.40;;;;;;;;;;5033494;28;20267;-60
2022/01/08 11:43:20;;;;;;;25.37;14.50;;;;;;;;;;5034001;28;20223;-59
2022/01/08 11:45:47;;;;;;;26.60;13.87;;;;;;;;;;5052240;28;20309;-60
2022/01/08 11:48:13;;;;;;;30.27;14.93;;;;;;;;;;5033095;28;20694;-59
2022/01/08 11:50:38;;;;;;;25.43;13.63;;;;;;;;;;5034361;28;20209;-59
2022/01/08 11:53:11;;;;;;;29.90;14.03;;;;;;;;;;5051413;28;20218;-59
2022/01/08 11:55:36;;;;;;;24.33;13.77;;;;;;;;;;5051298;28;20248;-59
2022/01/08 11:58:12;;;;;;;24.97;12.90;;;;;;;;;;5033931;28;20239;-60
2022/01/08 12:00:45;;;;;;;26.73;14.10;;;;;;;;;;5047252;28;20245;-59
2022/01/08 12:03:31;;;;;;;28.67;14.50;;;;;;;;;;5030966;28;20223;-59
2022/01/08 12:05:56;;;;;;;25.43;13.87;;;;;;;;;;5031712;28;20224;-59
2022/01/08 12:08:34;;;;;;;22.37;12.60;;;;;;;;;;5014113;28;20219;-59
2022/01/08 12:11:01;;;;;;;27.60;13.70;;;;;;;;;;5013373;28;20671;-59
2022/01/08 12:13:39;;;;;;;25.33;13.33;;;;;;;;;;5014303;28;20613;-59
2022/01/08 12:16:05;;;;;;;21.97;11.03;;;;;;;;;;5013086;28;20580;-59
2022/01/08 12:18:50;;;;;;;23.37;11.33;;;;;;;;;;5002681;28;20208;-60
2022/01/08 12:21:34;;;;;;;21.67;10.93;;;;;;;;;;5049605;28;20238;-59
2022/01/08 12:23:59;;;;;;;25.23;12.47;;;;;;;;;;5031364;28;20560;-59
2022/01/08 12:26:24;;;;;;;24.70;12.40;;;;;;;;;;4997137;28;20759;-60
2022/01/08 12:28:53;;;;;;;23.07;11.53;;;;;;;;;;5031826;28;20211;-60
2022/01/08 12:31:24;;;;;;;24.47;11.97;;;;;;;;;;5013054;28;20298;-60
2022/01/08 12:34:10;;;;;;;19.47;10.23;;;;;;;;;;5051103;28;20614;-60
2022/01/08 12:36:36;;;;;;;18.37;11.03;;;;;;;;;;5051629;28;20235;-60
2022/01/08 12:39:03;;;;;;;18.53;11.13;;;;;;;;;;5049377;28;20930;-60
2022/01/08 12:41:28;;;;;;;23.00;10.50;;;;;;;;;;5051671;28;20293;-60
2022/01/08 12:43:53;;;;;;;23.53;11.40;;;;;;;;;;5059355;28;20318;-60
2022/01/08 12:46:22;;;;;;;18.47;10.00;;;;;;;;;;5070462;28;20226;-59
2022/01/08 12:49:03;;;;;;;25.40;12.80;;;;;;;;;;5053656;28;20441;-59
2022/01/08 12:51:42;;;;;;;22.23;11.40;;;;;;;;;;5070808;28;20248;-59
2022/01/08 12:54:08;;;;;;;18.70;9.40;;;;;;;;;;5071239;28;20618;-59
2022/01/08 12:56:33;;;;;;;18.27;10.10;;;;;;;;;;5053565;28;20313;-59
2022/01/08 12:59:01;;;;;;;16.47;9.93;;;;;;;;;;5070858;28;20294;-59
2022/01/08 13:01:26;;;;;;;19.43;9.43;;;;;;;;;;5059549;28;20215;-59
2022/01/08 13:03:53;;;;;;;17.03;8.57;;;;;;;;;;5051686;28;20203;-59
2022/01/08 13:06:18;;;;;;;16.40;9.00;;;;;;;;;;5036049;28;20235;-59
2022/01/08 13:08:44;;;;;;;16.13;9.30;;;;;;;;;;5055187;28;20294;-59
2022/01/08 13:11:10;;;;;;;16.63;8.60;;;;;;;;;;5054506;28;20213;-59
2022/01/08 13:13:40;;;;;;;15.87;8.13;;;;;;;;;;5053816;28;20210;-59
2022/01/08 13:16:10;;;;;;;16.73;9.17;;;;;;;;;;5049550;28;20254;-60
2022/01/08 13:18:35;;;;;;;16.03;7.87;;;;;;;;;;5035213;28;20616;-59
2022/01/08 13:21:01;;;;;;;15.03;8.03;;;;;;;;;;5033574;28;20287;-60
2022/01/08 13:23:26;;;;;;;15.43;8.00;;;;;;;;;;5051614;28;20203;-60
2022/01/08 13:25:53;;;;;;;16.53;8.17;;;;;;;;;;5054598;28;20248;-59
2022/01/08 13:28:21;;;;;;;17.13;8.10;;;;;;;;;;5052910;28;20210;-59
2022/01/08 13:30:48;;;;;;;17.13;7.43;;;;;;;;;;5054881;28;20226;-59
2022/01/08 13:33:20;;;;;;;15.83;7.53;;;;;;;;;;5053444;28;20211;-59
2022/01/08 13:35:45;;;;;;;15.43;6.80;;;;;;;;;;5053759;28;20211;-59
2022/01/08 13:38:11;;;;;;;12.73;6.80;;;;;;;;;;5053891;28;20341;-59
2022/01/08 13:40:38;;;;;;;12.07;6.57;;;;;;;;;;5036003;28;20289;-59
2022/01/08 13:43:03;;;;;;;12.80;6.43;;;;;;;;;;5036125;28;20214;-60
2022/01/08 13:45:29;;;;;;;12.73;5.87;;;;;;;;;;5054452;28;20223;-60
2022/01/08 13:47:55;;;;;;;11.03;6.20;;;;;;;;;;5035837;28;20210;-59
2022/01/08 13:50:21;;;;;;;9.40;5.53;;;;;;;;;;5053861;28;20211;-60
2022/01/08 13:52:50;;;;;;;11.07;5.23;;;;;;;;;;5054116;28;20206;-59
2022/01/08 13:55:17;;;;;;;10.37;5.23;;;;;;;;;;5035425;28;20576;-59
2022/01/08 13:57:45;;;;;;;9.53;5.00;;;;;;;;;;5053792;28;20678;-60
2022/01/08 14:00:12;;;;;;;10.27;4.60;;;;;;;;;;5032641;28;20569;-59
2022/01/08 14:02:37;;;;;;;10.60;5.27;;;;;;;;;;5033515;28;20212;-60
2022/01/08 14:05:03;;;;;;;11.47;5.20;;;;;;;;;;5033884;28;20227;-60
2022/01/08 14:07:36;;;;;;;9.73;4.93;;;;;;;;;;5034011;28;20637;-60
2022/01/08 14:10:01;;;;;;;11.27;4.53;;;;;;;;;;5015043;28;20216;-60
2022/01/08 14:12:27;;;;;;;12.23;4.90;;;;;;;;;;5034153;28;20215;-60
2022/01/08 14:14:52;;;;;;;12.80;4.97;;;;;;;;;;5033499;28;20286;-61
2022/01/08 14:17:17;;;;;;;9.57;4.60;;;;;;;;;;5047463;28;20690;-62
2022/01/08 14:19:43;;;;;;;8.33;3.70;;;;;;;;;;5036089;28;20196;-63
2022/01/08 14:22:09;;;;;;;10.00;4.90;;;;;;;;;;5046622;28;20422;-60
2022/01/08 14:24:35;;;;;;;7.30;4.20;;;;;;;;;;5032981;28;20208;-60
2022/01/08 14:27:10;;;;;;;9.33;3.80;;;;;;;;;;5033418;28;20219;-60
2022/01/08 14:29:36;;;;;;;8.90;4.13;;;;;;;;;;5032711;28;20215;-60
2022/01/08 14:32:03;;;;;;;8.60;3.90;;;;;;;;;;5033415;28;20216;-60
2022/01/08 14:34:28;;;;;;;9.23;3.60;;;;;;;;;;5033677;28;20211;-60
2022/01/08 14:36:56;;;;;;;9.33;4.00;;;;;;;;;;4998782;28;20554;-60